Time;durP1;ratioP1;P1;durP2;ratioP2;P2;SDS_P1;SDS_P2;PMS_P1;PMS_P2;Temp;Humidity;BMP_temperature;BMP_pressure;BME280_temperature;BME280_humidity;BME280_pressure;Samples;Min_cycle;Max_cycle;Signal;HPM_P1;HPM_P2
2022/12/06 00:02:03;;;;;;;46.67;20.80;;;3.40;99.90;;;;;;5224099;28;20188;-48
2022/12/06 00:04:33;;;;;;;28.33;15.67;;;3.50;99.90;;;;;;5249050;28;20224;-48
2022/12/06 00:07:04;;;;;;;46.23;20.13;;;3.40;99.90;;;;;;5240793;28;20204;-47
2022/12/06 00:09:35;;;;;;;27.37;15.67;;;3.40;99.90;;;;;;5244126;28;20178;-48
2022/12/06 00:12:05;;;;;;;34.10;16.97;;;3.40;99.90;;;;;;5240354;28;20195;-49
2022/12/06 00:14:36;;;;;;;21.73;13.93;;;3.40;99.90;;;;;;5229880;28;20222;-48
2022/12/06 00:17:07;;;;;;;33.70;16.00;;;3.30;99.90;;;;;;5240832;28;20212;-48
2022/12/06 00:19:37;;;;;;;26.53;13.13;;;3.30;99.90;;;;;;5231586;28;20272;-48
2022/12/06 00:22:08;;;;;;;34.90;15.60;;;3.30;99.90;;;;;;5240349;28;20194;-49
2022/12/06 00:24:38;;;;;;;27.73;14.27;;;3.30;99.90;;;;;;5230802;28;20187;-48
2022/12/06 00:27:09;;;;;;;29.33;14.97;;;3.20;99.90;;;;;;5246461;28;20263;-48
2022/12/06 00:29:40;;;;;;;28.07;13.67;;;3.30;99.90;;;;;;5222618;28;20274;-48
2022/12/06 00:32:11;;;;;;;35.93;16.67;;;3.20;99.90;;;;;;5215553;28;20203;-48
2022/12/06 00:34:42;;;;;;;29.87;14.37;;;3.30;99.90;;;;;;5247670;28;20460;-47
2022/12/06 00:37:12;;;;;;;32.13;16.40;;;3.20;99.90;;;;;;5251250;28;20217;-48
2022/12/06 00:39:43;;;;;;;38.07;17.60;;;3.20;99.90;;;;;;5245277;28;20655;-49
2022/12/06 00:42:13;;;;;;;51.90;18.33;;;3.20;99.90;;;;;;5242594;28;20182;-48
2022/12/06 00:44:44;;;;;;;33.30;17.07;;;3.10;99.90;;;;;;5232027;28;20550;-48
2022/12/06 00:47:14;;;;;;;27.00;14.20;;;3.20;99.90;;;;;;5228107;28;20204;-47
2022/12/06 00:49:45;;;;;;;29.73;14.73;;;3.10;99.90;;;;;;5224866;28;20304;-48
2022/12/06 00:52:16;;;;;;;25.30;14.67;;;3.10;99.90;;;;;;5244051;28;20642;-48
2022/12/06 00:54:46;;;;;;;24.10;13.93;;;3.10;99.90;;;;;;5247102;28;20202;-49
2022/12/06 00:57:17;;;;;;;30.23;14.60;;;3.10;99.90;;;;;;5229205;28;20199;-48
2022/12/06 00:59:47;;;;;;;27.10;15.37;;;3.10;99.90;;;;;;5242343;28;20276;-48
2022/12/06 01:02:18;;;;;;;28.37;15.83;;;3.10;99.90;;;;;;5248279;28;20179;-47
2022/12/06 01:04:48;;;;;;;23.70;14.47;;;3.00;99.90;;;;;;5236160;28;20188;-48
2022/12/06 01:07:19;;;;;;;30.00;15.87;;;3.10;99.90;;;;;;5228374;28;20313;-48
2022/12/06 01:09:50;;;;;;;34.97;17.40;;;3.00;99.90;;;;;;5229748;28;20224;-49
2022/12/06 01:12:20;;;;;;;30.27;15.63;;;3.00;99.90;;;;;;5230627;28;20186;-48
2022/12/06 01:14:51;;;;;;;31.87;18.37;;;3.00;99.90;;;;;;5247087;28;20676;-48
2022/12/06 01:17:21;;;;;;;31.60;17.10;;;3.10;99.90;;;;;;5248382;28;20206;-49
2022/12/06 01:19:52;;;;;;;45.27;22.27;;;3.00;99.90;;;;;;5243931;28;20192;-48
2022/12/06 01:22:23;;;;;;;51.97;23.43;;;3.00;99.90;;;;;;5225693;28;20236;-49
2022/12/06 01:24:53;;;;;;;41.93;22.47;;;2.90;99.90;;;;;;5247197;28;20218;-50
2022/12/06 01:27:25;;;;;;;49.73;21.93;;;2.90;99.90;;;;;;5216488;28;20363;-48
2022/12/06 01:29:55;;;;;;;41.80;21.10;;;2.80;99.90;;;;;;5228081;28;20185;-47
2022/12/06 01:32:28;;;;;;;42.23;21.50;;;2.80;99.90;;;;;;5241944;28;20802;-50
2022/12/06 01:34:58;;;;;;;31.20;17.90;;;2.80;99.90;;;;;;5238647;28;20206;-48
2022/12/06 01:37:29;;;;;;;32.50;19.17;;;2.90;99.90;;;;;;5241801;28;20447;-50
2022/12/06 01:40:00;;;;;;;37.30;18.57;;;2.80;99.90;;;;;;5228921;28;20179;-48
2022/12/06 01:42:30;;;;;;;38.43;18.67;;;2.90;99.90;;;;;;5246235;28;20183;-49
2022/12/06 01:45:01;;;;;;;31.13;18.30;;;2.90;99.90;;;;;;5244007;28;20230;-47
2022/12/06 01:47:38;;;;;;;36.00;18.77;;;2.80;99.90;;;;;;5250325;28;20206;-48
2022/12/06 01:50:19;;;;;;;31.57;19.23;;;2.80;99.90;;;;;;5217794;28;20186;-49
2022/12/06 01:52:49;;;;;;;28.40;16.73;;;2.90;99.90;;;;;;5225144;28;20472;-49
2022/12/06 01:55:21;;;;;;;34.60;16.50;;;2.90;99.90;;;;;;5239697;28;20553;-49
2022/12/06 01:57:56;;;;;;;21.93;14.80;;;2.90;99.90;;;;;;5225380;28;20662;-50
2022/12/06 02:00:27;;;;;;;23.70;15.57;;;2.80;99.90;;;;;;5228687;28;20440;-50
2022/12/06 02:03:00;;;;;;;31.13;17.40;;;2.80;99.90;;;;;;5246481;28;20437;-50
2022/12/06 02:05:31;;;;;;;31.30;17.17;;;2.70;99.90;;;;;;5220186;28;20209;-48
2022/12/06 02:08:03;;;;;;;33.10;16.43;;;2.70;99.90;;;;;;5228824;28;20513;-49
2022/12/06 02:10:35;;;;;;;31.00;17.50;;;2.80;99.90;;;;;;5242271;28;20445;-47
2022/12/06 02:13:06;;;;;;;30.90;15.77;;;2.70;99.90;;;;;;5240243;28;20455;-49
2022/12/06 02:16:25;;;;;;;29.40;16.90;;;2.70;99.90;;;;;;5243651;28;20500;-48
2022/12/06 02:19:18;;;;;;;21.13;13.90;;;2.70;99.90;;;;;;5203512;28;20526;-49
2022/12/06 02:21:54;;;;;;;25.40;15.50;;;2.70;99.90;;;;;;5241976;28;20437;-47
2022/12/06 02:24:43;;;;;;;28.17;14.70;;;2.70;99.90;;;;;;5243458;28;20445;-51
2022/12/06 02:27:35;;;;;;;21.93;13.63;;;2.70;99.90;;;;;;5226408;23;20473;-49
2022/12/06 02:30:17;;;;;;;27.20;13.90;;;2.70;99.90;;;;;;5228941;28;20441;-52
2022/12/06 02:33:04;;;;;;;18.87;13.00;;;2.60;99.90;;;;;;5218762;28;20454;-46
2022/12/06 02:35:41;;;;;;;28.03;15.80;;;2.60;99.90;;;;;;5229669;28;20499;-45
2022/12/06 02:38:15;;;;;;;23.50;12.67;;;2.60;99.90;;;;;;5219655;28;20444;-47
2022/12/06 02:40:57;;;;;;;23.47;13.03;;;2.60;99.90;;;;;;5226831;28;20436;-46
2022/12/06 02:43:43;;;;;;;26.43;13.40;;;2.70;99.90;;;;;;5214329;28;20587;-48
2022/12/06 02:46:16;;;;;;;20.33;12.87;;;2.60;99.90;;;;;;5214830;28;20569;-50
2022/12/06 02:48:50;;;;;;;35.47;15.90;;;2.60;99.90;;;;;;5230345;28;20506;-50
2022/12/06 02:51:22;;;;;;;27.03;16.10;;;2.60;99.90;;;;;;5203946;28;20442;-51
2022/12/06 02:53:56;;;;;;;30.40;16.07;;;2.70;99.90;;;;;;5226998;28;20433;-50
2022/12/06 02:56:30;;;;;;;27.70;15.23;;;2.70;99.90;;;;;;5233092;28;20479;-48
2022/12/06 02:59:01;;;;;;;33.50;16.07;;;2.70;99.90;;;;;;5195020;28;21039;-49
2022/12/06 03:01:35;;;;;;;42.33;20.23;;;2.70;99.90;;;;;;5205089;28;20525;-51
2022/12/06 03:04:33;;;;;;;26.40;16.10;;;2.70;99.90;;;;;;5219473;28;20946;-50
2022/12/06 03:07:27;;;;;;;39.80;17.67;;;2.70;99.90;;;;;;5230056;28;20453;-50
2022/12/06 03:10:14;;;;;;;26.10;17.43;;;2.60;99.90;;;;;;5225014;28;20805;-51
2022/12/06 03:12:55;;;;;;;48.70;23.47;;;2.60;99.90;;;;;;5215162;28;20430;-50
2022/12/06 03:15:47;;;;;;;34.90;19.10;;;2.60;99.90;;;;;;5233117;28;20457;-50
2022/12/06 03:18:31;;;;;;;34.47;18.93;;;2.70;99.90;;;;;;5190289;28;20487;-50
2022/12/06 03:21:09;;;;;;;38.60;20.47;;;2.60;99.90;;;;;;5210799;28;20436;-50
2022/12/06 03:23:45;;;;;;;37.30;19.30;;;2.70;99.90;;;;;;5207576;28;20518;-50
2022/12/06 03:26:25;;;;;;;41.17;20.40;;;2.70;99.90;;;;;;5224245;28;20988;-50
2022/12/06 03:28:59;;;;;;;33.67;18.87;;;2.60;99.90;;;;;;5215428;28;20835;-51
2022/12/06 03:31:32;;;;;;;32.47;19.20;;;2.70;99.90;;;;;;5226156;28;20432;-51
2022/12/06 03:34:14;;;;;;;33.27;18.70;;;2.60;99.90;;;;;;5227702;28;20445;-51
2022/12/06 03:36:47;;;;;;;44.67;20.53;;;2.60;99.90;;;;;;5208382;28;20464;-50
2022/12/06 03:39:46;;;;;;;45.83;21.77;;;2.60;99.90;;;;;;5222406;28;20417;-47
2022/12/06 03:42:18;;;;;;;35.30;20.93;;;2.60;99.90;;;;;;5202604;28;20422;-47
2022/12/06 03:44:49;;;;;;;37.73;19.60;;;2.60;99.90;;;;;;5221334;28;20457;-48
2022/12/06 03:47:35;;;;;;;24.97;14.60;;;2.60;99.90;;;;;;5214867;28;20500;-46
2022/12/06 03:50:28;;;;;;;31.33;14.80;;;2.60;99.90;;;;;;5225565;28;20191;-45
2022/12/06 03:52:59;;;;;;;22.40;12.90;;;2.50;99.90;;;;;;5217598;28;20430;-47
2022/12/06 03:55:30;;;;;;;19.50;11.23;;;2.40;99.90;;;;;;5192096;28;20461;-48
2022/12/06 03:58:01;;;;;;;26.10;13.83;;;2.40;99.90;;;;;;5225266;28;20549;-51
2022/12/06 04:00:31;;;;;;;26.30;11.97;;;2.30;99.90;;;;;;5210276;28;20555;-48
2022/12/06 04:03:02;;;;;;;24.07;13.53;;;2.40;99.90;;;;;;5216252;28;20266;-48
2022/12/06 04:05:33;;;;;;;16.07;10.40;;;2.30;99.90;;;;;;5220815;28;20178;-47
2022/12/06 04:08:04;;;;;;;19.43;12.23;;;2.40;99.90;;;;;;5212131;28;20184;-49
2022/12/06 04:10:35;;;;;;;28.60;13.33;;;2.40;99.90;;;;;;5226302;28;20247;-47
2022/12/06 04:13:05;;;;;;;18.63;10.97;;;2.40;99.90;;;;;;5224256;28;20454;-48
2022/12/06 04:15:38;;;;;;;19.57;12.50;;;2.30;99.90;;;;;;5204460;28;20561;-47
2022/12/06 04:18:12;;;;;;;28.00;14.30;;;2.30;99.90;;;;;;5227562;28;20207;-52
2022/12/06 04:23:42;;;;;;;16.40;12.50;;;2.30;99.90;;;;;;5230843;28;20435;-49
2022/12/06 04:26:16;;;;;;;25.30;12.73;;;2.30;99.90;;;;;;5205226;28;20577;-47
2022/12/06 04:40:07;;;;;;;23.10;13.33;;;2.20;99.90;;;;;;5229441;28;20443;-46
2022/12/06 04:45:27;;;;;;;27.77;15.33;;;2.20;99.90;;;;;;5212572;28;20434;-47
2022/12/06 04:47:57;;;;;;;18.77;11.90;;;2.20;99.90;;;;;;5234923;28;20685;-48
2022/12/06 04:50:28;;;;;;;19.60;12.47;;;2.20;99.90;;;;;;5222495;28;20619;-46
2022/12/06 04:52:59;;;;;;;21.90;12.33;;;2.10;99.90;;;;;;5228541;28;20190;-48
2022/12/06 04:55:29;;;;;;;15.80;11.43;;;2.10;99.90;;;;;;5213580;28;20285;-46
2022/12/06 04:58:00;;;;;;;13.60;10.17;;;2.10;99.90;;;;;;5226978;28;20219;-48
2022/12/06 05:00:31;;;;;;;19.73;10.93;;;2.20;99.90;;;;;;5211443;28;20247;-47
2022/12/06 05:03:01;;;;;;;16.20;10.20;;;2.10;99.90;;;;;;5225259;28;20174;-46
2022/12/06 05:05:32;;;;;;;18.53;12.00;;;2.00;99.90;;;;;;5214053;28;20197;-48
2022/12/06 05:08:03;;;;;;;15.27;10.07;;;2.10;99.90;;;;;;5212330;28;20278;-47
2022/12/06 05:10:34;;;;;;;15.53;9.87;;;2.10;99.90;;;;;;5228800;28;20201;-49
2022/12/06 05:13:05;;;;;;;13.77;10.17;;;2.10;99.90;;;;;;5235413;28;20853;-48
2022/12/06 05:15:36;;;;;;;14.13;10.30;;;2.10;99.90;;;;;;5223073;28;20502;-49
2022/12/06 05:18:06;;;;;;;15.83;9.83;;;2.10;99.90;;;;;;5241622;28;20187;-49
2022/12/06 05:20:37;;;;;;;16.20;10.97;;;2.10;99.90;;;;;;5214032;28;20186;-54
2022/12/06 05:23:08;;;;;;;16.50;10.57;;;2.00;99.90;;;;;;5207081;28;20207;-47
2022/12/06 05:25:38;;;;;;;28.50;10.70;;;2.00;99.90;;;;;;5205734;28;20603;-47
2022/12/06 05:28:09;;;;;;;19.23;11.57;;;2.10;99.90;;;;;;5209999;28;20199;-51
2022/12/06 05:30:40;;;;;;;14.40;9.40;;;2.00;99.90;;;;;;5213175;28;20530;-47
2022/12/06 05:33:10;;;;;;;15.07;10.40;;;2.10;99.90;;;;;;5216648;28;20187;-53
2022/12/06 05:35:41;;;;;;;16.03;10.30;;;2.10;99.90;;;;;;5219440;28;20203;-48
2022/12/06 05:38:12;;;;;;;13.30;9.30;;;2.00;99.90;;;;;;5210308;28;20650;-46
2022/12/06 05:40:44;;;;;;;14.80;9.20;;;2.00;99.90;;;;;;5203681;28;20183;-46
2022/12/06 05:43:15;;;;;;;23.13;11.87;;;2.00;99.90;;;;;;5211025;28;20179;-47
2022/12/06 05:45:46;;;;;;;17.87;12.10;;;1.90;99.90;;;;;;5205039;28;20649;-47
2022/12/06 05:48:17;;;;;;;17.63;9.63;;;2.00;99.90;;;;;;5208445;28;20521;-47
2022/12/06 05:50:49;;;;;;;19.20;11.70;;;2.00;99.90;;;;;;5219470;28;20542;-50
2022/12/06 05:53:20;;;;;;;12.47;9.50;;;2.10;99.90;;;;;;5201614;28;20440;-51
2022/12/06 05:55:51;;;;;;;18.60;11.47;;;2.20;99.90;;;;;;5213638;28;20532;-48
2022/12/06 05:58:22;;;;;;;14.60;10.03;;;2.20;99.90;;;;;;5218236;28;20453;-49
2022/12/06 06:00:53;;;;;;;13.07;9.53;;;2.10;99.90;;;;;;5218311;28;20510;-48
2022/12/06 06:03:26;;;;;;;17.87;9.53;;;2.10;99.90;;;;;;5204415;28;20209;-47
2022/12/06 06:05:58;;;;;;;14.73;9.13;;;2.10;99.90;;;;;;5212989;28;20454;-51
2022/12/06 06:08:30;;;;;;;15.47;9.70;;;2.00;99.90;;;;;;5202342;28;20871;-53
2022/12/06 06:11:01;;;;;;;18.90;10.43;;;2.10;99.90;;;;;;5202940;28;20503;-46
2022/12/06 06:13:32;;;;;;;19.30;9.47;;;2.00;99.90;;;;;;5223682;28;20430;-50
2022/12/06 06:16:03;;;;;;;12.70;9.10;;;2.00;99.90;;;;;;5202656;28;20470;-49
2022/12/06 06:18:34;;;;;;;18.60;9.73;;;2.10;99.90;;;;;;5205091;28;20198;-54
2022/12/06 06:21:05;;;;;;;12.93;9.30;;;2.10;99.90;;;;;;5201045;28;20555;-49
2022/12/06 06:23:35;;;;;;;13.63;9.43;;;2.10;99.90;;;;;;5222459;28;20201;-51
2022/12/06 06:26:09;;;;;;;20.90;11.47;;;2.20;99.90;;;;;;5226674;28;20460;-47
2022/12/06 06:28:40;;;;;;;18.50;11.03;;;2.10;99.90;;;;;;5203937;28;20213;-53
2022/12/06 06:31:11;;;;;;;20.13;9.90;;;2.10;99.90;;;;;;5194649;28;20525;-49
2022/12/06 06:33:41;;;;;;;17.60;9.90;;;2.10;99.90;;;;;;5198375;28;20241;-47
2022/12/06 06:36:12;;;;;;;19.03;10.07;;;2.10;99.90;;;;;;5198155;28;20509;-49
2022/12/06 06:38:43;;;;;;;16.17;10.40;;;2.10;99.90;;;;;;5201869;28;20187;-48
2022/12/06 06:41:14;;;;;;;14.37;9.77;;;2.10;99.90;;;;;;5216766;28;20293;-49
2022/12/06 06:43:44;;;;;;;13.87;9.90;;;2.20;99.90;;;;;;5197350;28;20182;-49
2022/12/06 06:46:15;;;;;;;19.63;10.00;;;2.20;99.90;;;;;;5212455;28;20231;-50
2022/12/06 06:48:46;;;;;;;15.10;9.60;;;2.20;99.90;;;;;;5199272;28;20179;-50
2022/12/06 06:51:17;;;;;;;19.10;9.00;;;2.20;99.90;;;;;;5219807;28;20744;-48
2022/12/06 06:53:48;;;;;;;12.03;8.40;;;2.10;99.90;;;;;;5205676;28;20476;-47
2022/12/06 06:56:19;;;;;;;12.00;7.47;;;2.20;99.90;;;;;;5213269;28;20241;-50
2022/12/06 06:58:50;;;;;;;17.47;9.30;;;2.20;99.90;;;;;;5198219;28;20608;-50
2022/12/06 07:01:22;;;;;;;15.53;10.40;;;2.30;99.90;;;;;;5197000;28;20203;-48
2022/12/06 07:03:53;;;;;;;16.47;9.70;;;2.30;99.90;;;;;;5234869;28;20429;-46
2022/12/06 07:06:24;;;;;;;12.67;9.13;;;2.30;99.90;;;;;;5203877;28;20499;-49
2022/12/06 07:08:55;;;;;;;15.73;10.47;;;2.30;99.90;;;;;;5220951;28;20212;-49
2022/12/06 07:11:26;;;;;;;14.73;9.80;;;2.30;99.90;;;;;;5194324;28;20225;-50
2022/12/06 07:13:57;;;;;;;13.07;9.30;;;2.30;99.90;;;;;;5211144;28;20187;-50
2022/12/06 07:16:29;;;;;;;11.33;8.30;;;2.30;99.90;;;;;;5217720;28;20482;-48
2022/12/06 07:18:59;;;;;;;11.53;8.67;;;2.30;99.90;;;;;;5201420;28;20453;-51
2022/12/06 07:21:31;;;;;;;14.10;9.40;;;2.40;99.90;;;;;;5220274;28;20979;-49
2022/12/06 07:24:01;;;;;;;12.60;8.87;;;2.30;99.90;;;;;;5230534;28;20187;-49
2022/12/06 07:26:32;;;;;;;18.03;9.70;;;2.30;99.90;;;;;;5204505;28;20473;-48
2022/12/06 07:29:03;;;;;;;14.40;9.97;;;2.30;99.90;;;;;;5186510;28;20745;-49
2022/12/06 07:31:34;;;;;;;20.70;11.60;;;2.40;99.90;;;;;;5187574;28;20191;-49
2022/12/06 07:34:05;;;;;;;15.40;11.23;;;2.60;99.90;;;;;;5188128;28;20888;-54
2022/12/06 07:36:36;;;;;;;14.40;9.67;;;2.50;99.90;;;;;;5204705;28;20476;-53
2022/12/06 07:39:06;;;;;;;12.67;11.00;;;2.40;99.90;;;;;;5216005;28;20425;-52
2022/12/06 07:47:15;;;;;;;12.63;9.40;;;2.60;99.90;;;;;;5220686;28;20476;-50
2022/12/06 07:49:46;;;;;;;10.20;8.43;;;2.60;99.90;;;;;;5213759;28;20437;-50
2022/12/06 07:52:17;;;;;;;8.80;7.57;;;2.60;99.90;;;;;;5220597;28;20234;-49
2022/12/06 07:54:48;;;;;;;9.90;7.80;;;2.60;99.90;;;;;;5220496;28;21024;-48
2022/12/06 07:57:20;;;;;;;15.00;8.60;;;2.50;99.90;;;;;;5218790;28;20210;-50
2022/12/06 07:59:51;;;;;;;8.77;7.10;;;2.50;99.90;;;;;;5197601;28;20179;-50
2022/12/06 08:02:27;;;;;;;7.80;6.93;;;2.50;99.90;;;;;;5201148;28;20541;-49
2022/12/06 08:04:58;;;;;;;10.10;8.10;;;2.60;99.90;;;;;;5204698;28;20201;-48
2022/12/06 08:07:28;;;;;;;14.67;8.70;;;2.60;99.90;;;;;;5200559;28;20476;-48
2022/12/06 08:09:59;;;;;;;8.87;7.97;;;2.60;99.90;;;;;;5188535;28;20219;-51
2022/12/06 08:12:31;;;;;;;9.20;7.10;;;2.60;99.90;;;;;;5220484;28;20202;-51
2022/12/06 08:15:01;;;;;;;9.33;8.20;;;2.60;99.90;;;;;;5205125;28;20211;-49
2022/12/06 08:17:32;;;;;;;8.90;7.97;;;2.60;99.90;;;;;;5201704;28;20467;-50
2022/12/06 08:20:03;;;;;;;10.13;7.77;;;2.70;99.90;;;;;;5207886;28;20186;-47
2022/12/06 08:22:34;;;;;;;10.00;7.77;;;2.70;99.90;;;;;;5218551;28;20266;-49
2022/12/06 08:25:06;;;;;;;11.57;8.50;;;2.60;99.90;;;;;;5189466;28;20979;-52
2022/12/06 08:27:36;;;;;;;9.13;7.60;;;2.70;99.90;;;;;;5218064;28;20241;-51
2022/12/06 08:30:08;;;;;;;11.30;8.20;;;2.80;99.90;;;;;;5214917;28;20449;-48
2022/12/06 08:32:38;;;;;;;9.93;7.43;;;2.70;99.90;;;;;;5197736;28;20198;-49
2022/12/06 08:35:09;;;;;;;9.87;8.50;;;2.80;99.90;;;;;;5207522;28;21059;-50
2022/12/06 08:37:40;;;;;;;8.23;7.33;;;2.70;99.90;;;;;;5217105;28;20214;-47
2022/12/06 08:40:11;;;;;;;11.23;8.50;;;2.70;99.90;;;;;;5209264;28;20180;-47
2022/12/06 08:42:44;;;;;;;14.27;8.17;;;2.70;99.90;;;;;;5229518;28;20186;-50
2022/12/06 08:45:15;;;;;;;12.50;8.13;;;2.60;99.90;;;;;;5208693;28;21149;-47
2022/12/06 08:47:46;;;;;;;15.13;7.37;;;2.60;99.90;;;;;;5209631;28;20457;-48
2022/12/06 08:50:16;;;;;;;6.60;6.00;;;2.70;99.90;;;;;;5220592;28;20664;-49
2022/12/06 08:52:47;;;;;;;8.07;6.47;;;2.70;99.90;;;;;;5206341;28;20188;-49
2022/12/06 08:55:18;;;;;;;10.00;6.83;;;2.70;99.90;;;;;;5216274;28;20669;-50
2022/12/06 08:57:49;;;;;;;7.00;6.03;;;2.80;99.90;;;;;;5203585;28;20270;-46
2022/12/06 09:00:20;;;;;;;7.10;4.67;;;2.80;99.90;;;;;;5222484;28;20266;-47
2022/12/06 09:02:50;;;;;;;6.90;4.93;;;2.80;99.90;;;;;;5211966;28;20183;-47
2022/12/06 09:05:21;;;;;;;9.67;7.03;;;2.90;99.90;;;;;;5208889;28;20449;-50
2022/12/06 09:07:52;;;;;;;7.63;6.37;;;2.90;99.90;;;;;;5200732;28;20264;-47
2022/12/06 09:10:22;;;;;;;6.00;5.37;;;3.00;99.90;;;;;;5210649;28;20273;-51
2022/12/06 09:12:53;;;;;;;7.90;5.30;;;3.00;99.90;;;;;;5198620;28;20195;-49
2022/12/06 09:15:24;;;;;;;7.37;5.07;;;3.00;99.90;;;;;;5207335;28;20211;-48
2022/12/06 09:17:55;;;;;;;5.33;4.90;;;3.10;99.90;;;;;;5220925;28;20218;-47
2022/12/06 09:20:25;;;;;;;6.80;4.80;;;3.10;99.90;;;;;;5221008;28;20248;-48
2022/12/06 09:22:57;;;;;;;6.43;5.10;;;3.20;99.90;;;;;;5204161;28;20246;-50
2022/12/06 09:25:27;;;;;;;5.20;4.37;;;3.20;99.90;;;;;;5203214;28;20188;-50
2022/12/06 09:27:58;;;;;;;4.33;3.93;;;3.30;99.90;;;;;;5201072;28;20487;-49
2022/12/06 09:30:29;;;;;;;4.70;4.30;;;3.40;99.90;;;;;;5222285;28;20434;-50
2022/12/06 09:33:00;;;;;;;7.40;4.43;;;3.30;99.90;;;;;;5202181;28;20449;-51
2022/12/06 09:35:31;;;;;;;4.53;4.17;;;3.40;99.90;;;;;;5220027;28;20211;-49
2022/12/06 09:38:03;;;;;;;5.27;4.70;;;3.30;99.90;;;;;;5234102;28;20477;-49
2022/12/06 09:40:41;;;;;;;6.10;4.90;;;3.30;99.90;;;;;;5194932;28;20454;-50
2022/12/06 09:43:35;;;;;;;4.83;4.10;;;3.20;99.90;;;;;;5219325;28;20434;-51
2022/12/06 09:46:28;;;;;;;5.17;4.77;;;3.10;99.90;;;;;;5233300;28;20470;-49
2022/12/06 09:49:17;;;;;;;7.93;4.10;;;3.10;99.90;;;;;;5221903;28;20417;-51
2022/12/06 09:52:09;;;;;;;5.90;5.30;;;2.90;99.90;;;;;;5219968;28;20437;-50
2022/12/06 09:54:52;;;;;;;4.70;4.30;;;2.90;99.90;;;;;;5221931;28;20557;-47
2022/12/06 09:57:49;;;;;;;4.80;4.17;;;3.10;99.90;;;;;;5196985;28;20504;-50
2022/12/06 10:00:22;;;;;;;4.47;4.07;;;3.20;99.90;;;;;;5205007;28;20537;-50
2022/12/06 10:03:11;;;;;;;4.30;4.00;;;3.10;99.90;;;;;;5202454;28;20783;-49
2022/12/06 10:06:02;;;;;;;7.30;4.40;;;3.20;99.90;;;;;;5218816;28;20449;-51
2022/12/06 10:08:57;;;;;;;3.93;3.73;;;3.20;99.90;;;;;;5199504;28;20433;-48
2022/12/06 10:11:56;;;;;;;5.43;4.93;;;3.10;99.90;;;;;;5203918;28;20449;-50
2022/12/06 10:14:26;;;;;;;4.97;4.57;;;3.10;99.90;;;;;;5219450;28;20787;-51
2022/12/06 10:17:03;;;;;;;4.87;4.43;;;3.20;99.90;;;;;;5215469;28;20478;-51
2022/12/06 10:19:52;;;;;;;4.83;3.83;;;3.20;99.90;;;;;;5210486;28;20187;-49
2022/12/06 10:22:26;;;;;;;8.40;4.07;;;3.30;99.90;;;;;;5211498;28;20429;-49
2022/12/06 10:25:02;;;;;;;8.07;5.03;;;3.30;99.90;;;;;;5203022;28;20438;-49
2022/12/06 10:27:37;;;;;;;6.43;5.10;;;3.30;99.90;;;;;;5215184;28;20553;-50
2022/12/06 10:30:12;;;;;;;4.77;4.40;;;3.30;99.90;;;;;;5203285;28;20434;-53
2022/12/06 10:32:52;;;;;;;4.73;4.47;;;3.30;99.90;;;;;;5218618;28;20430;-49
2022/12/06 10:35:42;;;;;;;5.13;4.73;;;3.40;99.90;;;;;;5213243;28;20474;-51
2022/12/06 10:38:25;;;;;;;6.10;4.50;;;3.30;99.90;;;;;;5212350;28;20516;-50
2022/12/06 10:41:25;;;;;;;6.77;5.40;;;3.30;99.90;;;;;;5198549;28;20626;-50
2022/12/06 10:44:13;;;;;;;7.30;5.63;;;3.40;99.90;;;;;;5195499;28;20445;-50
2022/12/06 10:47:05;;;;;;;7.90;5.00;;;3.50;99.90;;;;;;5220174;28;20485;-49
2022/12/06 10:49:54;;;;;;;6.33;4.63;;;3.60;99.90;;;;;;5195743;28;20433;-50
2022/12/06 10:52:42;;;;;;;8.30;5.10;;;3.50;99.90;;;;;;5196442;28;20457;-50
2022/12/06 10:55:38;;;;;;;5.63;5.03;;;3.60;99.90;;;;;;5201200;28;20459;-51
2022/12/06 10:58:27;;;;;;;7.10;5.53;;;3.60;99.90;;;;;;5211466;28;21297;-50
2022/12/06 11:01:02;;;;;;;7.97;6.07;;;3.60;99.90;;;;;;5201790;28;20441;-50
2022/12/06 11:03:58;;;;;;;7.93;5.83;;;3.60;99.90;;;;;;5197422;28;20430;-49
2022/12/06 11:06:52;;;;;;;6.13;5.57;;;3.60;99.90;;;;;;5199994;28;20854;-50
2022/12/06 11:09:40;;;;;;;8.07;6.33;;;3.50;99.90;;;;;;5205213;28;20438;-51
2022/12/06 11:12:26;;;;;;;9.60;6.70;;;3.40;99.90;;;;;;5213854;28;20439;-50
2022/12/06 11:15:12;;;;;;;6.57;6.00;;;3.60;99.90;;;;;;5201107;28;20434;-51
2022/12/06 11:17:47;;;;;;;8.13;6.07;;;3.60;99.90;;;;;;5217060;28;20453;-50
2022/12/06 11:20:32;;;;;;;6.70;6.00;;;3.50;99.90;;;;;;5230855;28;20441;-50
2022/12/06 11:23:23;;;;;;;8.90;6.33;;;3.40;99.90;;;;;;5212861;28;20960;-49
2022/12/06 11:26:21;;;;;;;10.07;7.47;;;3.50;99.90;;;;;;5197126;28;20480;-50
2022/12/06 11:29:03;;;;;;;7.80;6.27;;;3.50;99.90;;;;;;5217148;28;20527;-49
2022/12/06 11:31:49;;;;;;;9.73;6.80;;;3.60;99.90;;;;;;5193191;28;20494;-52
2022/12/06 11:34:29;;;;;;;8.30;7.43;;;3.70;99.90;;;;;;5190250;28;20449;-50
2022/12/06 11:37:02;;;;;;;12.83;7.60;;;3.70;99.90;;;;;;5207041;28;20475;-51
2022/12/06 11:39:33;;;;;;;10.97;7.00;;;3.80;99.90;;;;;;5193061;28;20932;-51
2022/12/06 11:42:06;;;;;;;12.30;7.70;;;3.70;99.90;;;;;;5222329;28;20504;-50
2022/12/06 11:44:47;;;;;;;8.03;6.00;;;3.80;99.90;;;;;;5206033;28;20447;-50
2022/12/06 11:47:21;;;;;;;9.03;5.37;;;3.80;99.90;;;;;;5210482;28;20635;-52
2022/12/06 11:49:54;;;;;;;8.50;5.90;;;3.80;99.90;;;;;;5200136;28;20850;-50
2022/12/06 11:52:46;;;;;;;6.80;6.00;;;3.90;99.90;;;;;;5221071;28;20451;-51
2022/12/06 11:55:20;;;;;;;9.63;6.73;;;3.90;99.90;;;;;;5208401;28;20799;-51
2022/12/06 11:58:06;;;;;;;5.77;5.20;;;3.80;99.90;;;;;;5218372;28;20503;-51
2022/12/06 12:00:53;;;;;;;6.60;6.07;;;3.80;99.90;;;;;;5207026;28;20827;-51
2022/12/06 12:03:33;;;;;;;5.47;4.97;;;3.80;99.90;;;;;;5221587;28;20458;-52
2022/12/06 12:06:18;;;;;;;9.47;6.60;;;3.60;99.90;;;;;;5200844;28;20562;-52
2022/12/06 12:08:53;;;;;;;7.60;5.30;;;3.50;99.90;;;;;;5204693;28;20460;-51
2022/12/06 12:11:28;;;;;;;6.17;5.57;;;3.60;99.90;;;;;;5224380;28;20493;-52
2022/12/06 12:14:26;;;;;;;7.70;4.93;;;3.60;99.90;;;;;;5230039;28;20447;-51
2022/12/06 12:17:01;;;;;;;10.13;6.07;;;3.50;99.90;;;;;;5222686;28;20477;-51
2022/12/06 12:19:49;;;;;;;5.53;4.53;;;3.50;99.90;;;;;;5199695;28;20439;-50
2022/12/06 12:22:22;;;;;;;4.70;4.30;;;3.50;99.90;;;;;;5208834;28;20515;-51
2022/12/06 12:24:56;;;;;;;4.60;4.20;;;3.50;99.90;;;;;;5218502;28;21011;-51
2022/12/06 12:27:53;;;;;;;16.17;9.73;;;3.40;99.90;;;;;;5215094;28;20463;-51
2022/12/06 12:30:35;;;;;;;4.00;3.70;;;3.40;99.90;;;;;;5219002;28;20433;-50
2022/12/06 12:33:06;;;;;;;4.70;4.40;;;3.40;99.90;;;;;;5191752;28;20457;-53
2022/12/06 12:35:46;;;;;;;4.90;4.50;;;3.30;99.90;;;;;;5213704;28;20467;-52
2022/12/06 12:38:26;;;;;;;4.13;3.80;;;3.30;99.90;;;;;;5193167;28;20191;-50
2022/12/06 12:41:18;;;;;;;3.90;3.70;;;3.30;99.90;;;;;;5210817;28;20537;-51
2022/12/06 12:44:00;;;;;;;4.00;3.70;;;3.20;99.90;;;;;;5205361;28;20513;-51
2022/12/06 12:46:36;;;;;;;3.60;3.40;;;3.20;99.90;;;;;;5198818;28;20492;-49
2022/12/06 12:49:35;;;;;;;4.20;4.00;;;3.20;99.90;;;;;;5224177;28;20447;-51
2022/12/06 12:52:35;;;;;;;3.33;3.03;;;3.20;99.90;;;;;;5212207;28;20934;-51
2022/12/06 12:55:30;;;;;;;3.17;2.97;;;3.20;99.90;;;;;;5209127;28;20449;-51
2022/12/06 12:58:00;;;;;;;3.37;3.17;;;3.10;99.90;;;;;;5193097;28;20943;-51
2022/12/06 13:00:37;;;;;;;3.70;3.40;;;3.10;99.90;;;;;;5215763;28;20532;-50
2022/12/06 13:03:20;;;;;;;4.17;3.77;;;3.10;99.90;;;;;;5220754;28;20199;-51
2022/12/06 13:05:51;;;;;;;3.50;3.30;;;3.10;99.90;;;;;;5220544;28;20842;-51
2022/12/06 13:08:29;;;;;;;3.00;2.90;;;3.10;99.90;;;;;;5231843;28;20971;-50
2022/12/06 13:11:02;;;;;;;3.37;3.17;;;3.20;99.90;;;;;;5201698;28;20441;-51
2022/12/06 13:13:44;;;;;;;3.47;3.27;;;3.10;99.90;;;;;;5231009;28;20445;-52
2022/12/06 13:16:34;;;;;;;3.93;3.57;;;3.20;99.90;;;;;;5221793;28;20484;-51
2022/12/06 13:19:09;;;;;;;4.10;3.80;;;3.30;99.90;;;;;;5223223;28;20805;-52
2022/12/06 13:21:44;;;;;;;4.50;3.30;;;3.30;99.90;;;;;;5218682;28;20438;-51
2022/12/06 13:24:22;;;;;;;4.50;4.10;;;3.20;99.90;;;;;;5219873;28;20878;-52
2022/12/06 13:27:02;;;;;;;3.90;3.60;;;3.10;99.90;;;;;;5223486;28;20839;-51
2022/12/06 13:29:58;;;;;;;3.57;3.33;;;3.20;99.90;;;;;;5205290;28;20437;-51
2022/12/06 13:32:36;;;;;;;3.93;3.63;;;3.10;99.90;;;;;;5170092;28;20445;-52
2022/12/06 13:35:20;;;;;;;6.30;4.17;;;3.10;99.90;;;;;;5224505;28;20828;-53
2022/12/06 13:38:00;;;;;;;5.30;4.00;;;3.20;99.90;;;;;;5222266;28;20962;-53
2022/12/06 13:40:48;;;;;;;4.93;4.47;;;3.20;99.90;;;;;;5218722;28;20439;-49
2022/12/06 13:43:25;;;;;;;8.80;4.50;;;3.20;99.90;;;;;;5206481;28;20446;-51
2022/12/06 13:46:07;;;;;;;5.13;4.37;;;3.20;99.90;;;;;;5202877;28;20607;-52
2022/12/06 13:48:55;;;;;;;6.00;5.30;;;3.20;99.90;;;;;;5221686;28;20438;-53
2022/12/06 13:51:36;;;;;;;5.60;5.10;;;3.20;99.90;;;;;;5205101;28;20437;-52
2022/12/06 13:54:14;;;;;;;5.30;4.80;;;3.30;99.90;;;;;;5223734;28;20442;-51